createdAt,value
2023-06-29T00:02:30.138Z,70
2023-06-29T00:12:30.284Z,70
2023-06-29T00:32:30.684Z,71
2023-06-29T01:12:31.452Z,72
2023-06-29T01:22:32.527Z,72
2023-06-29T01:32:31.880Z,73
2023-06-29T01:42:32.042Z,73
2023-06-29T01:52:32.231Z,73
2023-06-29T04:32:35.373Z,70
2023-06-29T04:42:35.536Z,70
2023-06-29T04:52:35.775Z,70
2023-06-29T05:02:35.994Z,70
2023-06-29T05:12:36.144Z,70
2023-06-29T05:22:36.326Z,70
2023-06-29T10:32:42.380Z,66
2023-06-29T10:42:42.580Z,66
2023-06-29T10:52:42.761Z,65
2023-06-29T11:02:43.008Z,63
2023-06-29T11:12:43.159Z,61
2023-06-29T11:22:43.369Z,61
2023-06-29T11:32:43.619Z,61
2023-06-29T11:42:43.777Z,62
2023-06-29T11:52:43.940Z,62
2023-06-29T12:02:44.165Z,62
2023-06-29T12:12:44.322Z,63
2023-06-29T12:22:44.533Z,62
2023-06-29T12:32:44.730Z,63
2023-06-29T12:42:44.909Z,62
2023-06-29T13:02:45.561Z,62
2023-06-29T13:12:45.495Z,62
2023-06-29T13:22:45.682Z,61
2023-06-29T13:32:45.931Z,60
2023-06-29T13:42:46.106Z,60
2023-06-29T13:52:46.288Z,58
2023-06-29T14:02:46.581Z,56
2023-06-29T14:12:46.668Z,55
2023-06-29T14:22:46.882Z,55
2023-06-29T14:32:47.094Z,55
2023-06-29T14:52:47.452Z,56
2023-06-29T15:02:47.712Z,56
2023-06-29T15:12:47.831Z,56
2023-06-29T15:22:48.030Z,57
2023-06-29T15:32:48.251Z,58
2023-06-29T15:42:48.435Z,58
2023-06-29T15:52:48.665Z,59
2023-06-29T16:02:49.008Z,59
2023-06-29T16:12:49.020Z,59
2023-06-29T16:22:49.270Z,59
2023-06-29T16:32:49.435Z,59
2023-06-29T16:42:49.592Z,60
2023-06-29T16:52:49.795Z,59
2023-06-29T17:02:50.055Z,60
2023-06-29T18:12:51.356Z,66
2023-06-29T18:22:51.546Z,65
2023-06-29T18:32:51.751Z,65
2023-06-29T18:52:52.184Z,67
2023-06-29T19:32:53.055Z,70
2023-06-29T19:43:58.832Z,70
2023-06-29T20:42:54.288Z,80
2023-06-29T21:02:54.703Z,84
2023-06-29T21:22:55.099Z,84
2023-06-29T21:32:55.270Z,84
2023-06-29T21:42:55.442Z,85
2023-06-29T21:52:55.651Z,85
2023-06-29T22:02:56.771Z,85
2023-06-29T22:12:56.047Z,85
2023-06-29T22:22:56.233Z,85
2023-06-29T22:32:56.450Z,85
2023-06-29T22:42:56.619Z,86
2023-06-29T22:52:56.872Z,86
2023-06-29T23:02:57.061Z,84
2023-06-29T23:12:57.196Z,84
2023-06-29T23:32:57.624Z,84
2023-06-29T23:42:57.792Z,84
2023-06-29T23:52:57.978Z,85
